Time;durP1;ratioP1;P1;durP2;ratioP2;P2;SDS_P1;SDS_P2;PMS_P1;PMS_P2;Temp;Humidity;BMP_temperature;BMP_pressure;BME280_temperature;BME280_humidity;BME280_pressure;Samples;Min_cycle;Max_cycle;Signal;HPM_P1;HPM_P2
2023/08/16 00:01:13;;;;;;;22.57;21.27;;;;;;;;;;5122372;28;20439;-86
2023/08/16 00:03:41;;;;;;;22.93;21.33;;;;;;;;;;5120642;28;20592;-86
2023/08/16 00:06:11;;;;;;;24.63;22.90;;;;;;;;;;5120815;28;20497;-86
2023/08/16 00:08:38;;;;;;;25.03;23.20;;;;;;;;;;5122666;28;20456;-86
2023/08/16 00:11:06;;;;;;;23.63;22.00;;;;;;;;;;5117866;28;20411;-86
2023/08/16 00:13:33;;;;;;;23.77;22.27;;;;;;;;;;5120417;28;20462;-86
2023/08/16 00:16:01;;;;;;;25.13;23.53;;;;;;;;;;5118528;28;20415;-86
2023/08/16 00:18:29;;;;;;;23.83;22.20;;;;;;;;;;5120144;28;20489;-86
2023/08/16 00:20:57;;;;;;;23.23;21.67;;;;;;;;;;5116752;28;20428;-87
2023/08/16 00:23:25;;;;;;;22.90;21.40;;;;;;;;;;5118201;28;20459;-86
2023/08/16 00:25:52;;;;;;;23.70;22.20;;;;;;;;;;5117404;28;20456;-86
2023/08/16 00:28:19;;;;;;;23.67;22.07;;;;;;;;;;5117370;28;20452;-86
2023/08/16 00:30:46;;;;;;;23.63;21.97;;;;;;;;;;5122462;28;20464;-88
2023/08/16 00:33:15;;;;;;;26.10;24.10;;;;;;;;;;5130400;28;20468;-88
2023/08/16 00:35:42;;;;;;;23.93;22.33;;;;;;;;;;5119886;27;20462;-86
2023/08/16 00:38:09;;;;;;;24.33;22.60;;;;;;;;;;5116640;28;20419;-86
2023/08/16 00:40:36;;;;;;;24.93;23.40;;;;;;;;;;5115572;28;20444;-86
2023/08/16 00:43:04;;;;;;;25.23;23.33;;;;;;;;;;5118221;27;20463;-86
2023/08/16 00:45:31;;;;;;;24.43;22.80;;;;;;;;;;5118005;28;20479;-86
2023/08/16 00:47:59;;;;;;;23.33;21.80;;;;;;;;;;5117962;28;20411;-87
2023/08/16 00:50:27;;;;;;;24.97;23.37;;;;;;;;;;5116164;28;20480;-86
2023/08/16 00:52:55;;;;;;;24.33;22.73;;;;;;;;;;5120093;28;20478;-87
2023/08/16 00:55:23;;;;;;;25.50;23.67;;;;;;;;;;5137894;27;20523;-86
2023/08/16 00:57:50;;;;;;;23.47;22.17;;;;;;;;;;5122733;28;21245;-86
2023/08/16 01:00:18;;;;;;;25.03;23.50;;;;;;;;;;5116771;28;20437;-86
2023/08/16 01:02:45;;;;;;;24.57;22.77;;;;;;;;;;5117660;28;20472;-86
2023/08/16 01:05:12;;;;;;;25.40;23.63;;;;;;;;;;5117273;28;20476;-86
2023/08/16 01:07:41;;;;;;;27.80;26.00;;;;;;;;;;5117183;28;20471;-86
2023/08/16 01:10:08;;;;;;;25.80;24.00;;;;;;;;;;5116805;28;20423;-86
2023/08/16 01:12:38;;;;;;;28.40;26.20;;;;;;;;;;5116537;28;20452;-86
2023/08/16 01:15:09;;;;;;;27.90;25.57;;;;;;;;;;5115846;28;21314;-86
2023/08/16 01:17:36;;;;;;;26.23;24.53;;;;;;;;;;5117063;28;20463;-86
2023/08/16 01:20:04;;;;;;;27.47;25.43;;;;;;;;;;5116813;28;20440;-86
2023/08/16 01:22:34;;;;;;;26.93;24.70;;;;;;;;;;5116821;28;20476;-86
2023/08/16 01:25:16;;;;;;;27.90;25.60;;;;;;;;;;5116561;28;20524;-86
2023/08/16 01:27:45;;;;;;;26.87;25.17;;;;;;;;;;5114649;28;20459;-86
2023/08/16 01:30:12;;;;;;;25.93;23.97;;;;;;;;;;5119069;28;20436;-86
2023/08/16 01:32:40;;;;;;;26.43;24.60;;;;;;;;;;5116749;28;20479;-86
2023/08/16 01:35:07;;;;;;;26.43;24.43;;;;;;;;;;5117372;28;20522;-84
2023/08/16 01:37:34;;;;;;;26.80;24.90;;;;;;;;;;5117193;28;20444;-86
2023/08/16 01:40:04;;;;;;;26.47;24.73;;;;;;;;;;5116258;28;20426;-86
2023/08/16 01:42:33;;;;;;;26.47;24.47;;;;;;;;;;5116989;28;20435;-86
2023/08/16 01:45:02;;;;;;;28.73;26.73;;;;;;;;;;5116558;28;20465;-86
2023/08/16 01:47:30;;;;;;;27.57;25.23;;;;;;;;;;5117207;28;20976;-86
2023/08/16 01:49:57;;;;;;;27.23;24.77;;;;;;;;;;5116612;28;20432;-87
2023/08/16 01:52:26;;;;;;;28.00;26.00;;;;;;;;;;5116742;28;20860;-86
2023/08/16 01:54:53;;;;;;;28.07;26.07;;;;;;;;;;5116604;28;20436;-86
2023/08/16 01:57:21;;;;;;;26.20;24.40;;;;;;;;;;5116766;28;20463;-87
2023/08/16 01:59:48;;;;;;;27.43;25.50;;;;;;;;;;5115670;28;20446;-86
2023/08/16 02:02:16;;;;;;;26.70;24.90;;;;;;;;;;5115510;28;20449;-87
2023/08/16 02:04:43;;;;;;;27.03;24.93;;;;;;;;;;5115115;28;20440;-86
2023/08/16 02:07:10;;;;;;;26.20;24.30;;;;;;;;;;5097403;28;20490;-86
2023/08/16 02:09:37;;;;;;;27.47;25.40;;;;;;;;;;5095650;28;20493;-86
2023/08/16 02:12:04;;;;;;;27.30;25.43;;;;;;;;;;5095351;28;20457;-87
2023/08/16 02:14:31;;;;;;;26.80;25.00;;;;;;;;;;5095625;28;20841;-86
2023/08/16 02:16:59;;;;;;;27.37;25.37;;;;;;;;;;5096161;28;20441;-86
2023/08/16 02:19:27;;;;;;;27.27;25.17;;;;;;;;;;5096226;28;20445;-87
2023/08/16 02:21:54;;;;;;;27.50;25.33;;;;;;;;;;5098271;28;20548;-87
2023/08/16 02:24:27;;;;;;;28.40;26.20;;;;;;;;;;5095202;28;20444;-86
2023/08/16 02:26:54;;;;;;;27.30;25.40;;;;;;;;;;5095235;28;20920;-86
2023/08/16 02:29:22;;;;;;;27.80;25.83;;;;;;;;;;5095714;28;20433;-88
2023/08/16 02:31:49;;;;;;;29.23;26.63;;;;;;;;;;5098496;28;20878;-86
2023/08/16 02:34:16;;;;;;;28.70;26.60;;;;;;;;;;5099672;28;20423;-86
2023/08/16 02:36:44;;;;;;;29.03;26.73;;;;;;;;;;5098332;28;20449;-86
2023/08/16 02:39:11;;;;;;;27.60;25.63;;;;;;;;;;5098177;28;20449;-86
2023/08/16 02:41:38;;;;;;;27.37;25.37;;;;;;;;;;5097521;28;20452;-87
2023/08/16 02:44:06;;;;;;;28.33;26.37;;;;;;;;;;5098241;28;20457;-86
2023/08/16 02:46:33;;;;;;;27.53;25.63;;;;;;;;;;5098068;28;20447;-87
2023/08/16 02:49:00;;;;;;;27.80;25.30;;;;;;;;;;5098134;28;20437;-86
2023/08/16 02:51:27;;;;;;;30.43;27.73;;;;;;;;;;5097379;28;20415;-87
2023/08/16 02:53:56;;;;;;;29.53;27.20;;;;;;;;;;5097861;28;20492;-86
2023/08/16 02:56:23;;;;;;;29.00;27.00;;;;;;;;;;5098054;28;21139;-86
2023/08/16 02:58:50;;;;;;;30.67;28.47;;;;;;;;;;5098506;28;20841;-86
2023/08/16 03:01:17;;;;;;;30.17;27.77;;;;;;;;;;5097919;28;20444;-87
2023/08/16 03:03:44;;;;;;;31.13;28.83;;;;;;;;;;5098210;28;20460;-86
2023/08/16 03:06:11;;;;;;;31.40;29.30;;;;;;;;;;5098243;28;20484;-86
2023/08/16 03:08:38;;;;;;;31.17;28.50;;;;;;;;;;5099097;28;20934;-86
2023/08/16 03:11:06;;;;;;;29.20;27.20;;;;;;;;;;5097617;28;20456;-86
2023/08/16 03:13:33;;;;;;;30.17;28.13;;;;;;;;;;5098296;28;20476;-87
2023/08/16 03:16:00;;;;;;;29.57;27.40;;;;;;;;;;5102783;28;20448;-86
2023/08/16 03:18:28;;;;;;;30.13;27.93;;;;;;;;;;5098836;28;20456;-86
2023/08/16 03:20:55;;;;;;;29.00;26.77;;;;;;;;;;5098286;28;20441;-86
2023/08/16 03:23:23;;;;;;;28.57;26.50;;;;;;;;;;5098059;28;20468;-86
2023/08/16 03:25:50;;;;;;;29.67;27.60;;;;;;;;;;5098642;28;20439;-87
2023/08/16 03:28:18;;;;;;;30.23;27.97;;;;;;;;;;5098686;28;20423;-87
2023/08/16 03:30:45;;;;;;;31.07;28.77;;;;;;;;;;5098068;28;20935;-86
2023/08/16 03:33:12;;;;;;;29.10;27.10;;;;;;;;;;5099885;28;20450;-87
2023/08/16 03:35:39;;;;;;;28.70;26.80;;;;;;;;;;5097430;28;20427;-87
2023/08/16 03:38:06;;;;;;;30.17;28.10;;;;;;;;;;5098529;28;20408;-87
2023/08/16 03:40:34;;;;;;;29.47;27.37;;;;;;;;;;5097664;28;20412;-87
2023/08/16 03:43:01;;;;;;;31.87;29.63;;;;;;;;;;5098260;28;20467;-89
2023/08/16 03:45:30;;;;;;;33.13;30.47;;;;;;;;;;5097862;28;20480;-87
2023/08/16 03:47:57;;;;;;;31.73;29.17;;;;;;;;;;5097311;28;20510;-87
2023/08/16 03:50:24;;;;;;;32.00;29.17;;;;;;;;;;5097462;28;20813;-87
2023/08/16 03:52:51;;;;;;;33.40;30.53;;;;;;;;;;5097111;28;20424;-87
2023/08/16 03:55:19;;;;;;;33.63;31.00;;;;;;;;;;5098475;28;20444;-87
2023/08/16 03:57:46;;;;;;;32.90;30.40;;;;;;;;;;5097209;28;20437;-87
2023/08/16 04:00:15;;;;;;;32.10;29.70;;;;;;;;;;5096894;28;20850;-87
2023/08/16 04:02:43;;;;;;;31.90;29.50;;;;;;;;;;5097404;28;20477;-87
2023/08/16 04:05:12;;;;;;;32.30;29.80;;;;;;;;;;5114260;28;20452;-86
2023/08/16 04:07:39;;;;;;;32.20;29.67;;;;;;;;;;5117642;28;20476;-87
2023/08/16 04:10:07;;;;;;;31.57;29.17;;;;;;;;;;5117570;28;20451;-86
2023/08/16 04:12:34;;;;;;;33.17;30.80;;;;;;;;;;5118288;28;20468;-87
2023/08/16 04:15:01;;;;;;;32.43;29.83;;;;;;;;;;5118021;28;20455;-86
2023/08/16 04:17:28;;;;;;;30.67;28.30;;;;;;;;;;5117695;28;20443;-87
2023/08/16 04:19:57;;;;;;;31.47;29.03;;;;;;;;;;5118581;28;20430;-87
2023/08/16 04:22:24;;;;;;;31.30;29.23;;;;;;;;;;5117806;28;20955;-87
2023/08/16 04:24:51;;;;;;;33.57;30.87;;;;;;;;;;5117348;28;20438;-87
2023/08/16 04:27:18;;;;;;;33.00;30.23;;;;;;;;;;5118208;28;20480;-87
2023/08/16 04:29:45;;;;;;;33.57;30.97;;;;;;;;;;5117432;28;20458;-87
2023/08/16 04:32:12;;;;;;;32.37;29.77;;;;;;;;;;5117343;28;20488;-87
2023/08/16 04:34:39;;;;;;;30.40;27.73;;;;;;;;;;5117916;28;20419;-86
2023/08/16 04:37:08;;;;;;;32.03;29.63;;;;;;;;;;5118882;28;20926;-87
2023/08/16 04:39:35;;;;;;;31.37;29.00;;;;;;;;;;5118194;28;20531;-87
2023/08/16 04:42:02;;;;;;;31.03;28.83;;;;;;;;;;5116973;28;20434;-86
2023/08/16 04:44:30;;;;;;;29.67;27.47;;;;;;;;;;5117294;28;20402;-81
2023/08/16 04:46:57;;;;;;;30.63;28.23;;;;;;;;;;5117417;28;20485;-81
2023/08/16 04:49:26;;;;;;;30.10;27.90;;;;;;;;;;5117978;28;20494;-81
2023/08/16 04:51:54;;;;;;;32.27;29.43;;;;;;;;;;5115513;28;20463;-81
2023/08/16 04:54:22;;;;;;;36.23;32.97;;;;;;;;;;5116467;28;20414;-81
2023/08/16 04:56:50;;;;;;;36.53;33.43;;;;;;;;;;5116669;28;20435;-82
2023/08/16 04:59:17;;;;;;;40.87;37.17;;;;;;;;;;5118286;28;20433;-82
2023/08/16 05:01:45;;;;;;;41.23;37.20;;;;;;;;;;5111730;28;20895;-81
2023/08/16 05:04:12;;;;;;;40.80;37.30;;;;;;;;;;5111399;28;20538;-81
2023/08/16 05:06:39;;;;;;;39.80;36.20;;;;;;;;;;5109735;28;20498;-82
2023/08/16 05:09:07;;;;;;;40.43;36.90;;;;;;;;;;5117714;28;20446;-79
2023/08/16 05:11:36;;;;;;;39.67;36.10;;;;;;;;;;5116520;28;20439;-80
2023/08/16 05:14:03;;;;;;;38.77;35.43;;;;;;;;;;5117778;28;20444;-80
2023/08/16 05:16:30;;;;;;;39.47;35.97;;;;;;;;;;5119367;28;20418;-81
2023/08/16 05:18:58;;;;;;;37.90;34.80;;;;;;;;;;5119147;28;20443;-81
2023/08/16 05:21:25;;;;;;;40.07;36.30;;;;;;;;;;5118395;28;20470;-81
2023/08/16 05:23:53;;;;;;;40.17;36.37;;;;;;;;;;5129573;28;20472;-80
2023/08/16 05:26:20;;;;;;;39.53;36.43;;;;;;;;;;5123359;28;20558;-79
2023/08/16 05:28:48;;;;;;;40.77;37.27;;;;;;;;;;5116713;28;20479;-78
2023/08/16 05:31:16;;;;;;;39.13;35.73;;;;;;;;;;5116786;28;20455;-81
2023/08/16 05:33:43;;;;;;;38.63;35.63;;;;;;;;;;5117381;28;20519;-82
2023/08/16 05:36:10;;;;;;;37.07;33.90;;;;;;;;;;5116992;28;20444;-82
2023/08/16 05:38:37;;;;;;;36.40;33.30;;;;;;;;;;5115879;28;20452;-82
2023/08/16 05:41:05;;;;;;;35.60;32.53;;;;;;;;;;5114520;28;20456;-82
2023/08/16 05:43:32;;;;;;;33.83;31.40;;;;;;;;;;5114739;28;20991;-81
2023/08/16 05:46:00;;;;;;;33.63;31.10;;;;;;;;;;5114851;28;20480;-81
2023/08/16 05:48:27;;;;;;;33.60;31.10;;;;;;;;;;5116452;28;20452;-79
2023/08/16 05:50:54;;;;;;;34.83;31.93;;;;;;;;;;5115916;28;20527;-80
2023/08/16 05:53:21;;;;;;;31.53;29.00;;;;;;;;;;5115748;28;20600;-80
2023/08/16 05:55:48;;;;;;;32.43;29.77;;;;;;;;;;5101740;28;20437;-79
2023/08/16 05:58:15;;;;;;;32.80;29.90;;;;;;;;;;5095178;28;20448;-79
2023/08/16 06:00:45;;;;;;;32.20;29.40;;;;;;;;;;5096157;28;20461;-80
2023/08/16 06:03:13;;;;;;;31.07;28.87;;;;;;;;;;5096036;28;20480;-80
2023/08/16 06:05:40;;;;;;;32.17;29.73;;;;;;;;;;5112175;28;20422;-80
2023/08/16 06:08:08;;;;;;;30.37;28.13;;;;;;;;;;5120489;28;20458;-79
2023/08/16 06:10:36;;;;;;;30.00;27.63;;;;;;;;;;5119492;28;20450;-79
2023/08/16 06:13:03;;;;;;;29.07;27.00;;;;;;;;;;5121827;28;20506;-79
2023/08/16 06:15:30;;;;;;;28.47;26.37;;;;;;;;;;5120559;28;20446;-79
2023/08/16 06:17:57;;;;;;;29.80;27.50;;;;;;;;;;5120175;28;20439;-79
2023/08/16 06:20:26;;;;;;;30.33;28.00;;;;;;;;;;5119688;28;20423;-80
2023/08/16 06:22:53;;;;;;;29.20;26.63;;;;;;;;;;5119605;28;20613;-79
2023/08/16 06:25:20;;;;;;;30.43;27.77;;;;;;;;;;5119817;28;20474;-79
2023/08/16 06:27:48;;;;;;;30.77;27.57;;;;;;;;;;5119834;28;20475;-80
2023/08/16 06:30:15;;;;;;;29.10;26.90;;;;;;;;;;5118859;28;21186;-86
2023/08/16 06:32:42;;;;;;;28.47;26.60;;;;;;;;;;5119976;28;20450;-81
2023/08/16 06:35:10;;;;;;;27.27;25.30;;;;;;;;;;5120244;28;20447;-79
2023/08/16 06:37:38;;;;;;;27.37;25.23;;;;;;;;;;5120099;28;20431;-80
2023/08/16 06:40:06;;;;;;;28.27;26.17;;;;;;;;;;5119239;28;20432;-78
2023/08/16 06:42:34;;;;;;;26.70;25.03;;;;;;;;;;5118958;28;20446;-79
2023/08/16 06:45:01;;;;;;;25.97;24.07;;;;;;;;;;5120713;27;20814;-79
2023/08/16 06:47:28;;;;;;;25.50;23.60;;;;;;;;;;5120650;28;20465;-79
2023/08/16 06:49:55;;;;;;;25.50;23.70;;;;;;;;;;5119115;28;20414;-79
2023/08/16 06:52:22;;;;;;;25.43;23.50;;;;;;;;;;5119574;28;20460;-80
2023/08/16 06:54:51;;;;;;;23.77;21.83;;;;;;;;;;5120790;28;20937;-79
2023/08/16 06:57:18;;;;;;;22.43;20.77;;;;;;;;;;5120464;28;20476;-79
2023/08/16 06:59:45;;;;;;;22.70;21.30;;;;;;;;;;5113140;28;20456;-78
2023/08/16 07:02:14;;;;;;;22.37;21.07;;;;;;;;;;5099674;28;21035;-80
2023/08/16 07:04:42;;;;;;;23.00;21.27;;;;;;;;;;5118575;28;20949;-80
2023/08/16 07:07:09;;;;;;;23.00;21.20;;;;;;;;;;5111459;28;20515;-79
2023/08/16 07:09:36;;;;;;;21.47;20.17;;;;;;;;;;5111103;28;20444;-80
2023/08/16 07:12:05;;;;;;;21.40;20.00;;;;;;;;;;5102093;28;20475;-79
2023/08/16 07:14:32;;;;;;;21.00;19.80;;;;;;;;;;5099058;28;20451;-81
2023/08/16 07:16:59;;;;;;;21.87;20.27;;;;;;;;;;5097592;28;20407;-79
2023/08/16 07:19:27;;;;;;;21.80;20.47;;;;;;;;;;5098317;28;20415;-80
2023/08/16 07:21:54;;;;;;;21.83;20.33;;;;;;;;;;5097913;28;20889;-80
2023/08/16 07:24:21;;;;;;;22.47;20.83;;;;;;;;;;5098806;28;20427;-80
2023/08/16 07:26:48;;;;;;;22.13;20.73;;;;;;;;;;5098766;28;20458;-79
2023/08/16 07:29:16;;;;;;;20.37;18.87;;;;;;;;;;5108656;28;20452;-80
2023/08/16 07:31:43;;;;;;;22.43;20.47;;;;;;;;;;5099941;28;20449;-80
2023/08/16 07:34:11;;;;;;;21.77;20.17;;;;;;;;;;5117753;28;20451;-80
2023/08/16 07:36:38;;;;;;;21.67;20.20;;;;;;;;;;5119153;28;20440;-79
2023/08/16 07:39:05;;;;;;;21.47;20.13;;;;;;;;;;5116249;28;20472;-79
2023/08/16 07:41:32;;;;;;;21.83;20.13;;;;;;;;;;5123155;28;20442;-80
2023/08/16 07:43:59;;;;;;;22.40;20.50;;;;;;;;;;5115685;28;20465;-80
2023/08/16 07:46:28;;;;;;;20.47;19.10;;;;;;;;;;5119065;28;20446;-79
2023/08/16 07:48:55;;;;;;;22.07;20.27;;;;;;;;;;5120760;28;20923;-80
2023/08/16 07:51:22;;;;;;;21.80;20.30;;;;;;;;;;5116488;28;20826;-79
2023/08/16 07:53:49;;;;;;;21.37;19.73;;;;;;;;;;5120603;28;20442;-79
2023/08/16 07:56:16;;;;;;;21.87;20.27;;;;;;;;;;5120613;28;20456;-79
2023/08/16 07:58:43;;;;;;;21.27;19.90;;;;;;;;;;5120963;28;20430;-79
2023/08/16 08:01:10;;;;;;;21.20;19.70;;;;;;;;;;5120741;28;20426;-78
2023/08/16 08:03:39;;;;;;;21.13;19.83;;;;;;;;;;5102968;28;20432;-80
2023/08/16 08:06:09;;;;;;;21.83;20.17;;;;;;;;;;5098048;28;20445;-79
2023/08/16 08:08:36;;;;;;;21.73;20.27;;;;;;;;;;5102831;28;20491;-79
2023/08/16 08:11:03;;;;;;;22.23;20.20;;;;;;;;;;5110698;28;20449;-79
2023/08/16 08:13:30;;;;;;;20.80;19.37;;;;;;;;;;5096260;28;20472;-81
2023/08/16 08:15:57;;;;;;;20.70;19.40;;;;;;;;;;5099165;28;20428;-85
2023/08/16 08:18:24;;;;;;;21.93;20.40;;;;;;;;;;5126725;28;20455;-79
2023/08/16 08:20:52;;;;;;;20.97;19.47;;;;;;;;;;5117687;28;20453;-78
2023/08/16 08:23:19;;;;;;;20.87;19.57;;;;;;;;;;5117722;28;20460;-79
2023/08/16 08:25:47;;;;;;;21.40;19.87;;;;;;;;;;5117958;28;20456;-80
2023/08/16 08:28:14;;;;;;;21.97;20.47;;;;;;;;;;5116494;28;20450;-78
2023/08/16 08:30:41;;;;;;;21.10;19.50;;;;;;;;;;5118799;28;20419;-78
2023/08/16 08:33:08;;;;;;;21.40;20.10;;;;;;;;;;5117517;28;20475;-80
2023/08/16 08:35:35;;;;;;;21.13;19.53;;;;;;;;;;5116175;28;21066;-79
2023/08/16 08:38:04;;;;;;;21.80;19.83;;;;;;;;;;5114692;28;20468;-78
2023/08/16 08:40:31;;;;;;;21.07;19.50;;;;;;;;;;5113876;28;20813;-79
2023/08/16 08:43:00;;;;;;;21.70;20.37;;;;;;;;;;5114926;28;20490;-77
2023/08/16 08:45:28;;;;;;;23.10;21.53;;;;;;;;;;5114677;28;20497;-78
2023/08/16 08:47:57;;;;;;;21.73;20.40;;;;;;;;;;5116081;28;20482;-78
2023/08/16 08:50:24;;;;;;;22.30;20.63;;;;;;;;;;5114046;28;20843;-78
2023/08/16 08:52:52;;;;;;;22.10;20.13;;;;;;;;;;5113963;28;20806;-77
2023/08/16 08:55:21;;;;;;;21.90;20.40;;;;;;;;;;5112992;28;20929;-77
2023/08/16 08:57:51;;;;;;;21.00;19.50;;;;;;;;;;5113537;28;20813;-76
2023/08/16 09:00:20;;;;;;;21.57;20.07;;;;;;;;;;5124756;28;20412;-79
2023/08/16 09:02:49;;;;;;;21.80;20.40;;;;;;;;;;5101938;28;20831;-77
2023/08/16 09:05:18;;;;;;;22.13;20.63;;;;;;;;;;5110942;28;20487;-77
2023/08/16 09:07:46;;;;;;;22.47;21.03;;;;;;;;;;5112318;28;21050;-76
2023/08/16 09:10:13;;;;;;;23.20;21.70;;;;;;;;;;5112582;28;20436;-76
2023/08/16 09:12:42;;;;;;;23.10;21.37;;;;;;;;;;5112657;28;20468;-77
2023/08/16 09:15:11;;;;;;;22.97;21.37;;;;;;;;;;5113327;28;20559;-82
2023/08/16 09:17:38;;;;;;;22.57;20.80;;;;;;;;;;5113272;28;20805;-76
2023/08/16 09:20:06;;;;;;;23.17;21.67;;;;;;;;;;5109991;28;20500;-78
2023/08/16 09:22:33;;;;;;;21.90;20.30;;;;;;;;;;5116051;28;20500;-78
2023/08/16 09:25:03;;;;;;;22.20;20.80;;;;;;;;;;5116525;28;20968;-80
2023/08/16 09:27:31;;;;;;;22.37;21.07;;;;;;;;;;5102909;28;20492;-79
2023/08/16 09:30:01;;;;;;;22.50;21.10;;;;;;;;;;5093422;28;20449;-79
2023/08/16 09:32:30;;;;;;;22.13;20.80;;;;;;;;;;5101527;28;20457;-79
2023/08/16 09:34:58;;;;;;;21.60;20.20;;;;;;;;;;5114176;28;20444;-76
2023/08/16 09:37:26;;;;;;;21.83;20.63;;;;;;;;;;5113401;28;20953;-75
2023/08/16 09:39:57;;;;;;;22.77;21.40;;;;;;;;;;5100764;28;20517;-76
2023/08/16 09:42:31;;;;;;;22.80;21.30;;;;;;;;;;5100598;28;20461;-76
2023/08/16 09:45:00;;;;;;;23.07;21.37;;;;;;;;;;5093917;28;20428;-77
2023/08/16 09:47:28;;;;;;;23.30;21.70;;;;;;;;;;5109320;28;21024;-76
2023/08/16 09:49:55;;;;;;;23.50;22.00;;;;;;;;;;5109284;28;20481;-75
2023/08/16 09:52:23;;;;;;;21.80;20.40;;;;;;;;;;5100844;28;20478;-76
2023/08/16 09:54:51;;;;;;;24.23;22.20;;;;;;;;;;5113264;28;20431;-75
2023/08/16 09:57:19;;;;;;;22.93;21.40;;;;;;;;;;5106750;28;20859;-75
2023/08/16 09:59:47;;;;;;;22.13;20.83;;;;;;;;;;5107509;28;20461;-76
2023/08/16 10:02:15;;;;;;;22.77;21.37;;;;;;;;;;5106894;28;20497;-75
2023/08/16 10:04:43;;;;;;;21.60;20.37;;;;;;;;;;5099173;28;20498;-75
2023/08/16 10:07:10;;;;;;;22.77;21.17;;;;;;;;;;5107934;28;20473;-76
2023/08/16 10:09:37;;;;;;;23.17;21.63;;;;;;;;;;5111577;28;20464;-77
2023/08/16 10:12:06;;;;;;;22.37;20.77;;;;;;;;;;5106907;28;20471;-77
2023/08/16 10:14:34;;;;;;;21.80;20.30;;;;;;;;;;5108778;28;20544;-77
2023/08/16 10:17:02;;;;;;;22.20;20.90;;;;;;;;;;5102906;28;20465;-76
2023/08/16 10:19:32;;;;;;;21.90;20.60;;;;;;;;;;5115804;28;20430;-76
2023/08/16 10:22:00;;;;;;;22.10;20.50;;;;;;;;;;5114358;28;20980;-78
2023/08/16 10:24:29;;;;;;;22.57;21.10;;;;;;;;;;5114993;28;20456;-76
2023/08/16 10:26:58;;;;;;;22.20;20.90;;;;;;;;;;5111779;28;20566;-77
2023/08/16 10:29:26;;;;;;;22.43;20.93;;;;;;;;;;5107082;28;20477;-77
2023/08/16 10:31:56;;;;;;;21.40;20.03;;;;;;;;;;5091674;28;20469;-76
2023/08/16 10:34:24;;;;;;;22.20;20.53;;;;;;;;;;5091350;28;20460;-76
2023/08/16 10:36:52;;;;;;;22.77;21.47;;;;;;;;;;5091369;28;20441;-76
2023/08/16 10:39:23;;;;;;;22.30;20.80;;;;;;;;;;5091690;28;20457;-77
2023/08/16 10:41:50;;;;;;;22.97;21.47;;;;;;;;;;5094324;28;20433;-79
2023/08/16 10:44:36;;;;;;;22.57;21.07;;;;;;;;;;5103018;28;20456;-78
2023/08/16 10:47:03;;;;;;;22.27;20.97;;;;;;;;;;5113667;28;20451;-78
2023/08/16 10:49:37;;;;;;;22.50;21.00;;;;;;;;;;5118448;28;21065;-75
2023/08/16 10:52:06;;;;;;;21.90;20.50;;;;;;;;;;5104799;28;20516;-75
2023/08/16 10:54:33;;;;;;;22.20;20.70;;;;;;;;;;5099885;28;20452;-75
2023/08/16 10:57:35;;;;;;;21.70;20.30;;;;;;;;;;5103166;28;20453;-75
2023/08/16 11:00:03;;;;;;;21.90;20.30;;;;;;;;;;5102608;28;20514;-78
2023/08/16 11:02:31;;;;;;;21.70;20.10;;;;;;;;;;5106298;28;20476;-77
2023/08/16 11:04:59;;;;;;;22.07;20.40;;;;;;;;;;5105857;28;20448;-79
2023/08/16 11:07:28;;;;;;;22.17;20.57;;;;;;;;;;5104429;28;20493;-75
2023/08/16 11:09:59;;;;;;;22.77;21.37;;;;;;;;;;5097187;28;20950;-75
2023/08/16 11:12:30;;;;;;;23.47;21.97;;;;;;;;;;5105462;28;20882;-83
2023/08/16 11:14:57;;;;;;;21.80;20.40;;;;;;;;;;5102551;28;20465;-87
2023/08/16 11:17:26;;;;;;;21.40;20.10;;;;;;;;;;5101132;28;20437;-83
2023/08/16 11:19:54;;;;;;;23.40;21.57;;;;;;;;;;5101552;28;20536;-82
2023/08/16 11:22:21;;;;;;;22.40;21.00;;;;;;;;;;5102091;28;20476;-78
2023/08/16 11:24:50;;;;;;;21.63;20.10;;;;;;;;;;5098158;28;20502;-76
2023/08/16 11:27:21;;;;;;;22.63;21.20;;;;;;;;;;5098201;28;20504;-78
2023/08/16 11:29:49;;;;;;;22.77;21.10;;;;;;;;;;5118823;28;20508;-78
2023/08/16 11:32:17;;;;;;;22.43;20.93;;;;;;;;;;5107459;28;20846;-76
2023/08/16 11:34:44;;;;;;;23.93;22.37;;;;;;;;;;5099679;28;20452;-77
2023/08/16 11:37:19;;;;;;;22.10;20.80;;;;;;;;;;5098419;28;20883;-78
2023/08/16 11:39:46;;;;;;;22.77;21.37;;;;;;;;;;5111242;28;20533;-77
2023/08/16 11:42:14;;;;;;;22.60;21.10;;;;;;;;;;5097148;28;20521;-78
2023/08/16 11:44:42;;;;;;;23.03;21.60;;;;;;;;;;5110751;28;20444;-76
2023/08/16 11:47:12;;;;;;;24.27;22.67;;;;;;;;;;5108595;28;20431;-76
2023/08/16 11:49:39;;;;;;;23.70;21.80;;;;;;;;;;5097554;28;20459;-77
2023/08/16 11:52:06;;;;;;;24.20;22.60;;;;;;;;;;5101741;28;20454;-78
2023/08/16 11:54:33;;;;;;;24.20;22.63;;;;;;;;;;5117048;28;20440;-78
2023/08/16 11:57:00;;;;;;;24.20;22.50;;;;;;;;;;5116978;28;20433;-80
2023/08/16 11:59:29;;;;;;;25.10;23.30;;;;;;;;;;5098612;28;20451;-78
2023/08/16 12:01:57;;;;;;;23.87;22.40;;;;;;;;;;5098252;28;20439;-79
2023/08/16 12:04:24;;;;;;;24.70;22.90;;;;;;;;;;5102390;28;20443;-79
2023/08/16 12:06:52;;;;;;;24.80;22.97;;;;;;;;;;5120242;28;20440;-80
2023/08/16 12:09:20;;;;;;;25.00;23.10;;;;;;;;;;5118152;28;20483;-80
2023/08/16 12:11:51;;;;;;;24.07;22.57;;;;;;;;;;5102101;28;20964;-77
2023/08/16 12:14:18;;;;;;;24.23;22.37;;;;;;;;;;5105036;28;20460;-79
2023/08/16 12:16:46;;;;;;;24.20;22.20;;;;;;;;;;5112546;28;20451;-80
2023/08/16 12:19:18;;;;;;;24.27;22.57;;;;;;;;;;5100123;28;20455;-77
2023/08/16 12:21:45;;;;;;;23.23;21.83;;;;;;;;;;5109427;28;20923;-78
2023/08/16 12:24:12;;;;;;;24.53;23.00;;;;;;;;;;5118463;28;20445;-78
2023/08/16 12:26:39;;;;;;;23.97;22.37;;;;;;;;;;5120392;28;20436;-78
2023/08/16 12:29:06;;;;;;;23.53;22.17;;;;;;;;;;5120327;28;21371;-78
2023/08/16 12:31:33;;;;;;;23.93;22.23;;;;;;;;;;5123692;28;20432;-82
2023/08/16 12:34:02;;;;;;;24.07;22.47;;;;;;;;;;5134712;27;20458;-79
2023/08/16 12:36:29;;;;;;;24.50;22.73;;;;;;;;;;5118643;28;20474;-78
2023/08/16 12:38:56;;;;;;;25.33;23.40;;;;;;;;;;5116676;28;20459;-78
2023/08/16 12:41:23;;;;;;;23.37;21.87;;;;;;;;;;5119109;28;20455;-78
2023/08/16 12:43:50;;;;;;;24.37;22.50;;;;;;;;;;5120268;28;20485;-82
2023/08/16 12:46:17;;;;;;;24.27;22.50;;;;;;;;;;5118515;28;20460;-81
2023/08/16 12:48:45;;;;;;;24.83;23.00;;;;;;;;;;5118032;28;20549;-82
2023/08/16 12:51:14;;;;;;;24.50;22.73;;;;;;;;;;5102454;28;20484;-80
2023/08/16 12:53:41;;;;;;;24.33;22.73;;;;;;;;;;5100040;28;20464;-80
2023/08/16 12:56:08;;;;;;;23.23;21.83;;;;;;;;;;5117998;28;20444;-79
2023/08/16 12:58:35;;;;;;;23.63;22.23;;;;;;;;;;5119306;28;20922;-79
2023/08/16 13:01:02;;;;;;;24.30;22.90;;;;;;;;;;5103664;28;20423;-80
2023/08/16 13:03:31;;;;;;;25.07;23.27;;;;;;;;;;5105077;28;20480;-79
2023/08/16 13:05:58;;;;;;;24.40;22.90;;;;;;;;;;5114330;28;20415;-80
2023/08/16 13:08:28;;;;;;;23.77;22.37;;;;;;;;;;5107127;28;20496;-81
2023/08/16 13:10:55;;;;;;;23.00;21.60;;;;;;;;;;5105325;28;20464;-78
2023/08/16 13:13:23;;;;;;;23.77;22.30;;;;;;;;;;5115711;28;20470;-80
2023/08/16 13:15:50;;;;;;;24.97;23.27;;;;;;;;;;5110977;28;20551;-79
2023/08/16 13:18:17;;;;;;;24.03;22.47;;;;;;;;;;5111344;28;20415;-80
2023/08/16 13:20:45;;;;;;;25.03;23.10;;;;;;;;;;5109932;28;20485;-79
2023/08/16 13:23:12;;;;;;;24.03;22.23;;;;;;;;;;5107403;28;20861;-80
2023/08/16 13:25:44;;;;;;;23.53;21.93;;;;;;;;;;5106253;28;20817;-79
2023/08/16 13:28:13;;;;;;;22.20;20.73;;;;;;;;;;5102436;28;20525;-79
2023/08/16 13:30:40;;;;;;;23.53;22.13;;;;;;;;;;5113003;28;20444;-79
2023/08/16 13:33:08;;;;;;;24.27;22.60;;;;;;;;;;5117038;28;20475;-79
2023/08/16 13:35:36;;;;;;;23.60;22.10;;;;;;;;;;5106282;28;20828;-79
2023/08/16 13:38:03;;;;;;;25.23;23.70;;;;;;;;;;5109371;28;20477;-79
2023/08/16 13:40:30;;;;;;;23.63;22.23;;;;;;;;;;5111089;28;20443;-78
2023/08/16 13:42:59;;;;;;;24.47;22.90;;;;;;;;;;5104527;28;20465;-79
2023/08/16 13:45:27;;;;;;;25.37;23.73;;;;;;;;;;5096195;28;20445;-79
2023/08/16 13:47:55;;;;;;;24.63;23.00;;;;;;;;;;5114668;28;20425;-79
2023/08/16 13:50:22;;;;;;;24.37;22.60;;;;;;;;;;5116745;28;20472;-78
2023/08/16 13:52:49;;;;;;;23.20;21.80;;;;;;;;;;5114181;28;20467;-79
2023/08/16 13:55:17;;;;;;;24.30;22.90;;;;;;;;;;5114533;28;20455;-78
2023/08/16 13:57:44;;;;;;;23.73;22.33;;;;;;;;;;5113864;28;20440;-79
2023/08/16 14:00:13;;;;;;;25.13;23.37;;;;;;;;;;5112130;28;20448;-78
2023/08/16 14:02:40;;;;;;;23.80;22.30;;;;;;;;;;5104708;28;20514;-79
2023/08/16 14:05:08;;;;;;;23.40;22.00;;;;;;;;;;5105958;28;20463;-79
2023/08/16 14:07:35;;;;;;;25.33;23.80;;;;;;;;;;5112518;28;21288;-78
2023/08/16 14:10:02;;;;;;;24.73;23.23;;;;;;;;;;5117079;28;20487;-79
2023/08/16 14:12:29;;;;;;;24.30;22.63;;;;;;;;;;5114009;28;20787;-78
2023/08/16 14:14:56;;;;;;;25.90;24.20;;;;;;;;;;5112328;28;20480;-78
2023/08/16 14:17:25;;;;;;;23.73;22.17;;;;;;;;;;5113727;28;20447;-79
2023/08/16 14:19:52;;;;;;;24.33;22.63;;;;;;;;;;5110028;28;20448;-80